VTBU/UTP METAR and TAF weather

Enter ICAO airport designator
Station Type Date Time Source
VTBU METAR 2022/11/27 08:00 UTC NOAA

VTBU 270800Z 19003KT 9999 FEW020 SCT100 30/24 Q1007 NOSIG


Station Type Date Time Source
VTBU Decoded METAR 2022/11/27 08:00 UTC NOAA

Rayong, Thailand (VTBU) 12-38N 101-21E 5M
Nov 27, 2022 - 03:00 AM EST / 2022.11.27 0800 UTC
Wind: from the S (190 degrees) at 3 MPH (3 KT):0
Visibility: greater than 7 mile(s):0
Sky conditions: partly cloudy
Temperature: 86 F (30 C)
Heat index: 95.0 F (35.0 C):1
Dew Point: 75 F (24 C)
Relative Humidity: 70%
Pressure (altimeter): 29.74 in. Hg (1007 hPa)
ob: VTBU 270800Z 19003KT 9999 FEW020 SCT100 30/24 Q1007 NOSIG
cycle: 8

Station Type Date Time Source
VTBU TAF 2022/11/27 06:36 UTC NOAA

TAF VTBU 270500Z 2706/2806 14004KT 8000 FEW020 SCT040 BKN100
BECMG 2711/2712 02004KT

Example: see airport list